Time;durP1;ratioP1;P1;durP2;ratioP2;P2;SDS_P1;SDS_P2;PMS_P1;PMS_P2;Temp;Humidity;BMP_temperature;BMP_pressure;BME280_temperature;BME280_humidity;BME280_pressure;Samples;Min_cycle;Max_cycle;Signal;HPM_P1;HPM_P2
2021/04/19 00:01:57;;;;;;;18.70;10.70;;;;;;;2.88;74.78;99777.28;1702049;82;21190;-56
2021/04/19 00:04:25;;;;;;;21.03;10.90;;;;;;;2.85;74.70;99773.34;1736402;80;21179;-58
2021/04/19 00:06:53;;;;;;;17.23;8.73;;;;;;;2.83;74.57;99771.15;1703738;83;21433;-54
2021/04/19 00:09:20;;;;;;;12.70;7.97;;;;;;;2.71;74.51;99775.80;1705530;82;21188;-58
2021/04/19 00:11:49;;;;;;;10.37;7.30;;;;;;;2.60;74.87;99773.31;1704791;82;21238;-55
2021/04/19 00:14:16;;;;;;;10.53;7.60;;;;;;;2.55;75.12;99770.70;1741529;80;21493;-55
2021/04/19 00:16:43;;;;;;;11.43;7.73;;;;;;;2.56;75.23;99772.47;1735796;80;21170;-55
2021/04/19 00:19:11;;;;;;;17.80;9.57;;;;;;;2.56;75.20;99767.60;1740127;80;21489;-56
2021/04/19 00:21:38;;;;;;;13.63;8.63;;;;;;;2.56;75.05;99763.16;1739963;80;21143;-56
2021/04/19 00:24:06;;;;;;;9.03;7.87;;;;;;;2.53;75.18;99761.91;1741602;80;21111;-57
2021/04/19 00:26:34;;;;;;;16.13;9.77;;;;;;;2.54;75.35;99761.01;1742969;80;21567;-57
2021/04/19 00:29:02;;;;;;;9.83;8.33;;;;;;;2.57;75.41;99761.39;1740020;80;21175;-54
2021/04/19 00:31:31;;;;;;;15.70;9.20;;;;;;;2.57;75.31;99762.27;1737663;80;21120;-55
2021/04/19 00:33:59;;;;;;;13.67;8.83;;;;;;;2.55;75.33;99763.22;1740606;80;21214;-53
2021/04/19 00:36:29;;;;;;;15.90;10.33;;;;;;;2.54;75.38;99749.50;1737760;80;22223;-53
2021/04/19 00:38:56;;;;;;;21.70;12.33;;;;;;;2.55;75.29;99761.41;1741974;80;21207;-54
2021/04/19 00:41:24;;;;;;;26.40;12.73;;;;;;;2.56;75.29;99749.00;1753793;80;21772;-54
2021/04/19 00:43:52;;;;;;;21.57;12.47;;;;;;;2.57;75.37;99754.30;1731134;80;22201;-53
2021/04/19 00:46:19;;;;;;;23.60;13.77;;;;;;;2.60;75.43;99751.60;1754977;80;22526;-57
2021/04/19 00:48:46;;;;;;;22.73;13.43;;;;;;;2.65;75.40;99752.84;1718210;82;21208;-55
2021/04/19 00:51:16;;;;;;;26.67;16.03;;;;;;;2.66;75.31;99753.27;1728339;80;21179;-56
2021/04/19 00:53:43;;;;;;;25.90;16.93;;;;;;;2.67;75.20;99751.05;1732260;80;21642;-57
2021/04/19 00:56:11;;;;;;;26.70;16.60;;;;;;;2.64;75.12;99753.29;1716923;82;21243;-56
2021/04/19 00:58:40;;;;;;;31.80;19.73;;;;;;;2.62;75.18;99751.14;1694376;82;21217;-57
2021/04/19 01:01:09;;;;;;;25.13;16.83;;;;;;;2.63;75.18;99751.56;1752865;80;21187;-54
2021/04/19 01:03:36;;;;;;;27.93;17.50;;;;;;;2.59;75.13;99751.17;1753876;80;21155;-54
2021/04/19 01:06:05;;;;;;;23.40;16.60;;;;;;;2.57;75.20;99750.31;1702282;82;21174;-57
2021/04/19 01:08:33;;;;;;;21.57;14.87;;;;;;;2.59;75.18;99754.28;1755928;80;21768;-54
2021/04/19 01:11:03;;;;;;;20.97;13.70;;;;;;;2.59;75.08;99748.96;1751764;80;21131;-58
2021/04/19 01:13:32;;;;;;;25.23;14.37;;;;;;;2.57;75.03;99749.43;1751695;80;21667;-57
2021/04/19 01:15:59;;;;;;;20.63;11.20;;;;;;;2.42;75.13;99741.27;1754582;80;21144;-55
2021/04/19 01:18:27;;;;;;;21.40;12.87;;;;;;;2.35;75.49;99738.73;1751714;79;21113;-55
2021/04/19 01:20:55;;;;;;;18.53;11.80;;;;;;;2.34;75.63;99740.50;1682783;82;21720;-56
2021/04/19 01:23:23;;;;;;;23.03;14.20;;;;;;;2.35;75.62;99739.61;1755763;80;21119;-57
2021/04/19 01:25:51;;;;;;;19.37;13.70;;;;;;;2.38;75.61;99746.66;1754698;80;21127;-54
2021/04/19 01:28:19;;;;;;;20.13;13.60;;;;;;;2.41;75.59;99743.94;1705432;82;21541;-54
2021/04/19 01:30:48;;;;;;;23.50;15.10;;;;;;;2.41;75.40;99743.94;1754189;80;21101;-54
2021/04/19 01:33:16;;;;;;;27.60;14.97;;;;;;;2.37;75.42;99747.56;1754945;80;21203;-55
2021/04/19 01:35:44;;;;;;;18.07;13.40;;;;;;;2.33;75.45;99740.52;1755377;80;21171;-54
2021/04/19 01:38:13;;;;;;;20.07;13.50;;;;;;;2.29;75.52;99741.03;1755933;80;21115;-57
2021/04/19 01:40:42;;;;;;;26.47;14.07;;;;;;;2.28;75.54;99737.50;1715743;80;21548;-57
2021/04/19 01:43:10;;;;;;;19.60;13.20;;;;;;;2.29;75.40;99741.03;1736455;80;21130;-57
2021/04/19 01:45:49;;;;;;;17.43;12.87;;;;;;;2.28;75.40;99736.17;1737728;80;22090;-57
2021/04/19 01:48:19;;;;;;;22.23;13.93;;;;;;;2.28;75.48;99729.53;1734813;80;21210;-56
2021/04/19 01:50:48;;;;;;;19.77;11.63;;;;;;;2.31;75.52;99731.23;1708780;80;21182;-57
2021/04/19 01:53:15;;;;;;;22.67;13.97;;;;;;;2.32;75.46;99726.36;1733083;80;21119;-54
2021/04/19 01:55:43;;;;;;;22.67;14.27;;;;;;;2.35;75.44;99724.12;1734609;80;22567;-57
2021/04/19 01:58:17;;;;;;;23.23;14.43;;;;;;;2.37;75.26;99725.86;1734859;80;22139;-56
2021/04/19 02:00:48;;;;;;;20.10;14.53;;;;;;;2.37;75.22;99726.30;1741271;80;21115;-55
2021/04/19 02:03:48;;;;;;;22.20;14.90;;;;;;;2.37;75.14;99731.62;1736824;80;21127;-55
2021/04/19 02:06:49;;;;;;;25.27;13.73;;;;;;;2.32;75.13;99724.16;1734088;80;21603;-56
2021/04/19 02:09:27;;;;;;;20.97;14.30;;;;;;;2.30;75.07;99727.31;1732362;80;21171;-57
2021/04/19 02:12:09;;;;;;;16.43;12.13;;;;;;;2.23;75.04;99726.05;1733684;80;22784;-56
2021/04/19 02:15:04;;;;;;;18.60;12.43;;;;;;;2.15;74.99;99730.59;1710951;80;21132;-56
2021/04/19 02:17:59;;;;;;;19.62;11.80;;;;;;;2.09;75.12;99731.15;1735554;80;21155;-56
2021/04/19 02:20:52;;;;;;;16.40;10.07;;;;;;;2.03;75.27;99728.59;1738818;80;21437;-56
2021/04/19 02:23:34;;;;;;;15.83;11.00;;;;;;;2.05;75.35;99733.40;1735513;80;21105;-56
2021/04/19 02:26:27;;;;;;;15.07;9.37;;;;;;;2.08;75.44;99732.05;1734071;80;21192;-56
2021/04/19 02:29:03;;;;;;;16.53;11.03;;;;;;;2.11;75.45;99726.70;1735243;80;21579;-55
2021/04/19 02:31:36;;;;;;;17.80;10.83;;;;;;;2.13;75.38;99733.72;1711883;80;21179;-56
2021/04/19 02:34:09;;;;;;;15.13;9.90;;;;;;;2.12;75.28;99737.30;1733061;80;21161;-55
2021/04/19 02:36:44;;;;;;;19.87;11.23;;;;;;;2.11;75.36;99734.22;1697957;82;21498;-54
2021/04/19 02:39:13;;;;;;;18.77;12.83;;;;;;;2.05;75.24;99726.31;1674726;83;22393;-56
2021/04/19 02:41:41;;;;;;;17.40;10.27;;;;;;;1.94;75.54;99722.95;1707902;80;21586;-56
2021/04/19 02:44:10;;;;;;;13.67;10.47;;;;;;;1.88;75.56;99722.57;1734816;80;21178;-55
2021/04/19 02:46:39;;;;;;;22.43;9.57;;;;;;;1.82;75.62;99725.77;1733024;80;21166;-56
2021/04/19 02:49:07;;;;;;;16.93;9.27;;;;;;;1.80;75.71;99728.88;1738441;80;21696;-55
2021/04/19 02:51:35;;;;;;;13.63;7.87;;;;;;;1.81;75.79;99730.64;1739130;80;22269;-55
2021/04/19 02:54:03;;;;;;;13.97;8.80;;;;;;;1.82;75.74;99730.62;1736485;80;21538;-54
2021/04/19 02:56:30;;;;;;;13.10;6.93;;;;;;;1.84;75.66;99723.98;1737503;80;21496;-55
2021/04/19 02:59:00;;;;;;;13.30;8.73;;;;;;;1.86;75.70;99725.72;1709177;80;21586;-55
2021/04/19 03:01:31;;;;;;;12.23;7.93;;;;;;;1.89;75.61;99722.12;1735672;80;21780;-55
2021/04/19 03:04:02;;;;;;;12.13;8.57;;;;;;;1.89;75.67;99728.31;1736424;80;22040;-55
2021/04/19 03:06:30;;;;;;;14.03;9.23;;;;;;;1.93;75.64;99737.13;1736068;80;22224;-54
2021/04/19 03:09:01;;;;;;;17.83;10.00;;;;;;;1.94;75.63;99734.91;1738379;80;21775;-55
2021/04/19 03:11:48;;;;;;;20.40;10.87;;;;;;;1.98;75.64;99741.91;1736318;80;21119;-54
2021/04/19 03:14:16;;;;;;;12.70;9.23;;;;;;;1.96;75.55;99738.39;1708434;80;21169;-54
2021/04/19 03:17:04;;;;;;;12.83;8.60;;;;;;;2.00;75.79;99732.60;1866666;75;26631;-55
2021/04/19 03:19:38;;;;;;;13.03;7.57;;;;;;;2.00;75.82;99734.81;1833300;76;21087;-54
2021/04/19 03:22:06;;;;;;;12.87;8.00;;;;;;;2.06;75.75;99735.16;1801042;78;21146;-53
2021/04/19 03:24:33;;;;;;;11.30;7.80;;;;;;;2.07;75.76;99734.27;1803105;77;21506;-53
2021/04/19 03:27:06;;;;;;;16.40;7.97;;;;;;;2.11;75.82;99737.32;1769711;79;21123;-53
2021/04/19 03:29:35;;;;;;;14.53;7.80;;;;;;;2.12;75.78;99734.65;1802621;78;21175;-53
2021/04/19 03:32:18;;;;;;;16.13;9.20;;;;;;;2.12;75.99;99733.77;1864347;74;26728;-54
2021/04/19 03:34:47;;;;;;;15.30;9.93;;;;;;;2.09;76.18;99736.01;1834985;75;21392;-54
2021/04/19 03:37:22;;;;;;;17.23;9.37;;;;;;;2.16;76.29;99744.31;1833875;75;21403;-55
2021/04/19 03:39:56;;;;;;;13.40;9.23;;;;;;;2.21;76.36;99735.81;1813262;76;20989;-55
2021/04/19 03:42:25;;;;;;;;;;;;;;;2.32;76.38;99735.66;1833148;75;21089;-54
2021/04/19 03:44:54;;;;;;;12.40;7.43;;;;;;;2.38;76.33;99736.91;1830461;76;20160;-55
2021/04/19 03:47:23;;;;;;;14.47;7.90;;;;;;;2.46;76.44;99736.79;1771436;79;21197;-56
2021/04/19 03:49:55;;;;;;;14.70;6.13;;;;;;;2.56;76.44;99739.25;1792839;78;21951;-56
2021/04/19 03:52:28;;;;;;;13.20;7.87;;;;;;;2.71;76.53;99735.48;1763450;78;21194;-57
2021/04/19 03:54:57;;;;;;;12.85;8.73;;;;;;;2.89;76.62;99735.14;1772710;78;21171;-56
2021/04/19 03:57:26;;;;;;;12.93;7.43;;;;;;;3.12;76.46;99739.20;1790337;78;22704;-56
2021/04/19 04:00:02;;;;;;;11.30;7.57;;;;;;;3.31;76.36;99731.30;1772665;78;21202;-57
2021/04/19 04:02:31;;;;;;;9.77;7.43;;;;;;;3.49;76.31;99742.04;1789190;78;23157;-56
2021/04/19 04:05:00;;;;;;;13.07;9.07;;;;;;;3.69;76.17;99734.51;1771359;78;21154;-56
2021/04/19 04:07:40;;;;;;;14.80;10.17;;;;;;;3.94;75.86;99737.52;1868922;75;26728;-57
2021/04/19 04:10:09;;;;;;;16.73;10.07;;;;;;;3.99;75.54;99740.53;1813968;77;20976;-57
2021/04/19 04:12:36;;;;;;;12.00;8.03;;;;;;;4.03;75.44;99736.88;1785788;78;21360;-57
2021/04/19 04:15:06;;;;;;;15.93;10.00;;;;;;;4.10;75.43;99733.61;1803229;78;21000;-57
2021/04/19 04:17:37;;;;;;;11.30;8.80;;;;;;;4.17;75.31;99732.10;1802256;78;20999;-57
2021/04/19 04:20:11;;;;;;;11.87;8.50;;;;;;;4.24;75.24;99734.65;1799596;78;20940;-57
2021/04/19 04:22:40;;;;;;;12.03;7.50;;;;;;;4.29;75.14;99728.30;1802427;78;20945;-58
2021/04/19 04:25:09;;;;;;;12.93;9.03;;;;;;;4.35;75.20;99730.80;1780572;78;21373;-57
2021/04/19 04:27:37;;;;;;;11.83;7.37;;;;;;;4.42;75.40;99734.23;1781085;78;21571;-57
2021/04/19 04:30:05;;;;;;;11.87;8.60;;;;;;;4.48;75.36;99733.62;1800358;77;20976;-57
2021/04/19 04:32:34;;;;;;;12.63;8.87;;;;;;;4.48;75.45;99738.07;1775947;79;22199;-57
2021/04/19 04:35:17;;;;;;;12.90;9.23;;;;;;;4.55;75.72;99731.22;1865672;75;26645;-57
2021/04/19 04:37:46;;;;;;;12.67;9.17;;;;;;;4.58;75.66;99730.73;1842740;76;21483;-56
2021/04/19 04:40:16;;;;;;;12.73;9.40;;;;;;;4.62;75.63;99731.06;1842604;76;21454;-57
2021/04/19 04:42:44;;;;;;;12.27;8.20;;;;;;;4.66;75.66;99730.09;1846598;76;20992;-57
2021/04/19 04:45:12;;;;;;;13.60;8.87;;;;;;;4.68;75.81;99730.94;1843930;76;21788;-57
2021/04/19 04:47:51;;;;;;;11.03;8.80;;;;;;;4.69;76.02;99736.20;1847693;76;20958;-56
2021/04/19 04:50:36;;;;;;;15.10;9.07;;;;;;;4.72;76.33;99737.47;1843649;76;21004;-57
2021/04/19 04:54:57;;;;;;;12.90;7.97;;;;;;;4.88;77.07;99737.50;1792142;78;27252;-57
2021/04/19 04:57:26;;;;;;;10.30;7.70;;;;;;;4.91;77.53;99732.09;1774752;79;21266;-56
2021/04/19 04:59:53;;;;;;;11.77;7.27;;;;;;;5.04;77.86;99735.31;1771165;79;21356;-56
2021/04/19 05:02:22;;;;;;;13.30;9.00;;;;;;;5.17;78.16;99731.42;1771032;79;21230;-56
2021/04/19 05:04:50;;;;;;;18.77;8.83;;;;;;;5.31;78.40;99727.03;1776122;79;21198;-56
2021/04/19 05:07:18;;;;;;;11.63;8.43;;;;;;;5.48;78.58;99725.23;1778250;79;22129;-57
2021/04/19 05:09:47;;;;;;;13.97;9.70;;;;;;;5.65;78.67;99728.30;1772722;79;21137;-56
2021/04/19 05:12:14;;;;;;;11.77;8.53;;;;;;;5.81;78.60;99723.38;1770783;79;21462;-56
2021/04/19 05:15:01;;;;;;;10.97;9.40;;;;;;;5.97;78.53;99728.25;1772567;79;21956;-56
2021/04/19 05:17:29;;;;;;;12.60;10.20;;;;;;;6.11;78.38;99728.31;1692206;79;21914;-57
2021/04/19 05:19:56;;;;;;;13.67;9.27;;;;;;;6.25;78.38;99728.76;1775939;79;21391;-56
2021/04/19 05:22:25;;;;;;;11.67;8.60;;;;;;;6.41;78.31;99724.67;1775236;79;21099;-56
2021/04/19 05:24:52;;;;;;;15.53;9.80;;;;;;;6.56;78.19;99726.84;1776673;79;21385;-55
2021/04/19 05:27:19;;;;;;;15.27;9.77;;;;;;;6.71;77.90;99719.69;1774997;79;21622;-55
2021/04/19 05:29:46;;;;;;;11.17;8.60;;;;;;;6.88;77.77;99715.58;1776454;79;21155;-56
2021/04/19 05:32:16;;;;;;;14.37;9.40;;;;;;;7.03;77.55;99720.39;1772226;79;21178;-56
2021/04/19 05:34:44;;;;;;;13.30;9.23;;;;;;;7.19;77.46;99714.92;1776718;79;21237;-57
2021/04/19 05:37:11;;;;;;;11.43;8.80;;;;;;;7.35;77.36;99718.80;1774720;79;21635;-56
2021/04/19 05:39:38;;;;;;;11.37;8.17;;;;;;;7.50;77.02;99714.69;1778955;79;21187;-56
2021/04/19 05:42:08;;;;;;;13.37;9.13;;;;;;;7.63;76.37;99710.64;1763950;80;21157;-56
2021/04/19 05:44:35;;;;;;;9.40;7.30;;;;;;;7.75;75.60;99707.95;1744764;81;21194;-56
2021/04/19 05:47:02;;;;;;;9.23;6.73;;;;;;;7.84;75.24;99711.63;1745250;80;21211;-57
2021/04/19 05:49:30;;;;;;;9.27;6.17;;;;;;;7.90;74.65;99708.28;1745012;80;21226;-56
2021/04/19 05:51:59;;;;;;;9.27;5.40;;;;;;;7.98;73.87;99705.30;1745426;80;21229;-56
2021/04/19 05:54:26;;;;;;;6.87;3.93;;;;;;;8.05;73.93;99700.57;1740481;81;21172;-56
2021/04/19 05:57:09;;;;;;;4.87;3.40;;;;;;;8.14;73.14;99706.92;1729387;81;21606;-57
2021/04/19 06:00:03;;;;;;;3.10;2.23;;;;;;;8.21;72.51;99710.64;1732509;80;21211;-56
2021/04/19 06:02:56;;;;;;;10.37;3.33;;;;;;;8.29;71.61;99711.67;1731749;81;21955;-56
2021/04/19 06:05:33;;;;;;;5.37;2.73;;;;;;;8.39;70.99;99706.85;1736021;81;21284;-56
2021/04/19 06:08:33;;;;;;;5.10;3.50;;;;;;;8.49;70.55;99705.55;1739426;81;21203;-55
2021/04/19 06:11:48;;;;;;;4.23;3.93;;;;;;;8.61;70.48;99696.98;1863073;74;22552;-56
2021/04/19 06:14:32;;;;;;;4.83;2.60;;;;;;;8.63;70.16;99701.83;1842936;75;21160;-57
2021/04/19 06:17:03;;;;;;;6.03;3.10;;;;;;;8.71;70.18;99697.02;1839640;75;21358;-58
2021/04/19 06:19:32;;;;;;;3.33;2.10;;;;;;;8.77;70.08;99692.73;1842281;75;21020;-58
2021/04/19 06:21:59;;;;;;;7.57;2.00;;;;;;;8.85;69.47;99689.25;1844217;75;21521;-57
2021/04/19 06:24:26;;;;;;;5.13;2.17;;;;;;;8.94;69.23;99686.19;1839194;75;21170;-57
2021/04/19 06:26:54;;;;;;;3.63;2.07;;;;;;;9.02;68.91;99684.05;1841532;75;21456;-57
2021/04/19 06:29:27;;;;;;;4.57;1.90;;;;;;;9.10;68.36;99680.55;1846963;75;21338;-58
2021/04/19 06:31:55;;;;;;;2.53;2.30;;;;;;;9.16;67.66;99679.91;1847465;75;21603;-56
2021/04/19 06:34:22;;;;;;;3.60;1.87;;;;;;;9.19;67.54;99677.94;1839586;75;21055;-58
2021/04/19 06:36:51;;;;;;;2.40;1.60;;;;;;;9.24;67.46;99675.06;1846440;75;22235;-58
2021/04/19 06:39:19;;;;;;;4.80;1.97;;;;;;;9.29;67.56;99673.91;1842812;76;21173;-57
2021/04/19 06:41:47;;;;;;;5.87;2.60;;;;;;;9.35;67.73;99666.95;1839796;75;21370;-57
2021/04/19 06:44:14;;;;;;;2.67;1.32;;;;;;;9.45;67.54;99675.44;1836955;75;21238;-57
2021/04/19 06:46:44;;;;;;;3.17;1.67;;;;;;;9.50;66.81;99669.41;1769406;78;21219;-57
2021/04/19 06:49:13;;;;;;;2.87;2.02;;;;;;;9.55;66.77;99667.38;1770327;78;21164;-57
2021/04/19 06:51:40;;;;;;;3.25;1.20;;;;;;;9.63;66.48;99666.55;1800505;77;21572;-58
2021/04/19 06:54:10;;;;;;;2.55;1.50;;;;;;;9.72;66.08;99657.20;1765853;78;21700;-57
2021/04/19 06:56:42;;;;;;;1.15;1.05;;;;;;;9.81;65.72;99659.46;1796317;77;21238;-57
2021/04/19 06:59:20;;;;;;;3.20;1.00;;;;;;;9.87;65.36;99657.34;1762565;78;21504;-57
2021/04/19 07:01:50;;;;;;;1.35;0.70;;;;;;;9.97;65.04;99660.95;1761531;77;21195;-57
2021/04/19 07:06:21;;;;;;;0.97;0.87;;;;;;;10.15;63.98;99653.36;1794125;78;23958;-57
2021/04/19 07:08:50;;;;;;;2.52;1.20;;;;;;;10.16;63.71;99655.98;1770738;79;21013;-58
2021/04/19 07:11:22;;;;;;;1.20;1.00;;;;;;;10.21;63.39;99650.40;1737203;81;21379;-57
2021/04/19 07:13:50;;;;;;;1.15;0.90;;;;;;;10.25;63.26;99657.39;1712573;82;21414;-57
2021/04/19 07:16:17;;;;;;;2.27;0.90;;;;;;;10.29;62.61;99657.66;1717503;81;20942;-55
2021/04/19 07:18:46;;;;;;;1.40;1.30;;;;;;;10.33;62.54;99654.33;1712255;81;21424;-57
2021/04/19 07:21:14;;;;;;;1.75;0.90;;;;;;;10.37;61.90;99650.55;1742146;81;20990;-57
2021/04/19 07:23:43;;;;;;;1.62;1.10;;;;;;;10.39;61.96;99643.25;1717735;81;22308;-56
2021/04/19 07:26:10;;;;;;;2.55;1.37;;;;;;;10.41;61.51;99647.62;1717453;81;21912;-57
2021/04/19 07:28:38;;;;;;;1.50;1.40;;;;;;;10.43;61.57;99640.35;1707988;81;21095;-57
2021/04/19 07:31:09;;;;;;;1.60;1.42;;;;;;;10.48;60.78;99644.14;1713472;81;21119;-57
2021/04/19 07:33:37;;;;;;;5.87;1.77;;;;;;;10.51;60.36;99643.53;1714857;81;21117;-57
2021/04/19 07:36:28;;;;;;;6.78;1.65;;;;;;;10.53;60.42;99633.58;1742636;81;21398;-58
2021/04/19 07:38:59;;;;;;;1.98;1.87;;;;;;;10.58;60.68;99631.52;1744332;80;21204;-57
2021/04/19 07:41:54;;;;;;;2.17;1.95;;;;;;;10.67;60.13;99627.95;1703460;82;21239;-58
2021/04/19 07:44:46;;;;;;;2.55;2.00;;;;;;;10.79;60.08;99621.97;1709627;82;21216;-57
2021/04/19 07:47:37;;;;;;;2.58;2.17;;;;;;;10.79;60.08;99621.97;1674257;83;22538;-58
2021/04/19 07:50:15;;;;;;;2.65;1.62;;;;;;;10.85;59.80;99625.20;1683435;83;22242;-57
2021/04/19 07:53:07;;;;;;;2.20;1.47;;;;;;;10.90;59.63;99638.42;1682442;83;21230;-58
2021/04/19 07:55:37;;;;;;;6.28;1.77;;;;;;;10.92;58.50;99624.41;1747509;80;21253;-59
2021/04/19 07:58:22;;;;;;;1.80;1.30;;;;;;;10.93;58.53;99620.77;1740726;80;21736;-57
2021/04/19 08:00:51;;;;;;;1.10;1.00;;;;;;;10.96;57.84;99621.50;1705226;82;21176;-57
2021/04/19 08:03:19;;;;;;;4.40;1.77;;;;;;;10.98;56.36;99625.42;1688258;83;21231;-57
2021/04/19 08:05:51;;;;;;;1.40;1.30;;;;;;;10.97;56.99;99618.33;1676694;83;21251;-58
2021/04/19 08:08:36;;;;;;;5.97;2.05;;;;;;;11.02;57.19;99622.11;1700401;83;21247;-58
2021/04/19 08:11:12;;;;;;;4.33;2.25;;;;;;;11.08;57.07;99615.05;1687866;83;21210;-60
2021/04/19 08:13:40;;;;;;;1.47;1.30;;;;;;;11.17;57.39;99614.09;1686254;83;21199;-58
2021/04/19 08:16:22;;;;;;;1.57;1.47;;;;;;;11.26;57.39;99614.95;1687253;83;21397;-58
2021/04/19 08:18:51;;;;;;;1.42;1.20;;;;;;;11.32;56.23;99605.66;1701269;82;21243;-57
2021/04/19 08:21:29;;;;;;;1.65;1.00;;;;;;;11.34;56.17;99601.95;1689493;83;21198;-58
2021/04/19 08:23:58;;;;;;;1.77;1.40;;;;;;;11.43;56.24;99594.31;1672673;83;21206;-58
2021/04/19 08:26:48;;;;;;;1.55;1.30;;;;;;;11.56;55.34;99604.37;1665416;84;21812;-58
2021/04/19 08:29:47;;;;;;;5.78;1.45;;;;;;;11.65;53.36;99603.00;1701667;82;21561;-58
2021/04/19 08:32:22;;;;;;;2.67;1.10;;;;;;;11.64;53.89;99594.03;1673090;84;21207;-57
2021/04/19 08:34:50;;;;;;;2.47;1.00;;;;;;;11.65;54.19;99601.64;1701008;82;21199;-58
2021/04/19 08:37:23;;;;;;;1.67;1.35;;;;;;;11.63;53.86;99601.73;1686229;82;21132;-58
2021/04/19 08:39:50;;;;;;;2.10;1.20;;;;;;;11.60;54.21;99602.36;1660073;84;21506;-57
2021/04/19 08:42:20;;;;;;;1.22;1.12;;;;;;;11.55;54.78;99597.70;1684173;83;21219;-57
2021/04/19 08:44:47;;;;;;;2.92;1.05;;;;;;;11.54;55.01;99596.84;1689239;83;21306;-57
2021/04/19 08:47:19;;;;;;;1.42;1.30;;;;;;;11.55;54.79;99600.41;1686807;83;21234;-59
2021/04/19 08:49:47;;;;;;;1.77;1.30;;;;;;;11.56;54.29;99594.94;1701869;83;21334;-59
2021/04/19 08:52:15;;;;;;;1.20;1.10;;;;;;;11.52;53.62;99599.21;1701202;83;21120;-59
2021/04/19 08:54:45;;;;;;;1.20;1.00;;;;;;;11.49;53.99;99593.50;1703518;82;21328;-62
2021/04/19 08:57:12;;;;;;;2.00;0.90;;;;;;;11.55;54.18;99595.02;1674069;83;21538;-63
2021/04/19 08:59:43;;;;;;;0.93;0.80;;;;;;;11.66;53.55;99599.31;1649933;84;21240;-62
2021/04/19 09:02:14;;;;;;;3.25;1.72;;;;;;;11.77;53.16;99586.62;1676583;83;21193;-62
2021/04/19 09:05:03;;;;;;;1.25;0.98;;;;;;;11.88;52.54;99590.48;1677062;83;21132;-62
2021/04/19 09:07:36;;;;;;;2.55;0.90;;;;;;;11.98;50.91;99590.84;1667378;83;22302;-63
2021/04/19 09:10:08;;;;;;;1.10;0.90;;;;;;;12.06;50.81;99588.09;1701484;82;21231;-59
2021/04/19 09:12:35;;;;;;;2.33;1.10;;;;;;;12.15;50.51;99588.53;1702403;82;21180;-63
2021/04/19 09:15:26;;;;;;;1.90;1.00;;;;;;;12.17;50.79;99583.41;1699773;83;21193;-58
2021/04/19 09:18:08;;;;;;;1.12;0.90;;;;;;;12.20;50.95;99585.95;1700349;83;21192;-60
2021/04/19 09:20:51;;;;;;;3.25;0.93;;;;;;;12.19;50.74;99591.42;1692463;82;21146;-59
2021/04/19 09:23:28;;;;;;;2.25;0.95;;;;;;;12.17;50.95;99581.19;1705049;82;21188;-60
2021/04/19 09:25:56;;;;;;;1.65;1.15;;;;;;;12.13;51.13;99585.44;1666690;83;21211;-59
2021/04/19 09:28:44;;;;;;;5.33;1.45;;;;;;;12.15;51.00;99582.66;1670943;83;21223;-59
2021/04/19 09:31:12;;;;;;;2.70;1.22;;;;;;;12.15;50.91;99585.35;1672839;84;21559;-61
2021/04/19 09:33:40;;;;;;;2.92;0.90;;;;;;;12.15;50.98;99580.44;1703684;82;23113;-58
2021/04/19 09:36:09;;;;;;;1.20;1.10;;;;;;;12.13;50.93;99577.34;1688777;83;21127;-59
2021/04/19 09:38:41;;;;;;;1.60;1.12;;;;;;;12.16;51.20;99584.88;1685350;83;21219;-60
2021/04/19 09:41:11;;;;;;;1.60;1.10;;;;;;;12.17;50.38;99579.37;1687927;83;21257;-59
2021/04/19 09:43:52;;;;;;;1.05;0.90;;;;;;;12.22;50.01;99583.16;1689990;83;21144;-60
2021/04/19 09:46:24;;;;;;;0.90;0.82;;;;;;;12.23;49.86;99580.39;1704120;82;21383;-58
2021/04/19 09:49:01;;;;;;;1.00;0.90;;;;;;;12.24;49.34;99587.53;1700481;83;21148;-57
2021/04/19 09:51:37;;;;;;;1.50;0.70;;;;;;;12.21;48.43;99580.07;1701580;83;21645;-58
2021/04/19 09:54:10;;;;;;;0.85;0.70;;;;;;;12.16;48.93;99589.80;1675222;84;21119;-60
2021/04/19 09:56:43;;;;;;;0.90;0.70;;;;;;;12.17;48.58;99588.81;1675555;83;21123;-60
2021/04/19 09:59:27;;;;;;;1.05;0.80;;;;;;;12.19;48.84;99596.34;1679214;83;21147;-60
2021/04/19 10:01:56;;;;;;;2.42;1.20;;;;;;;12.21;49.95;99596.27;1684426;83;21176;-61
2021/04/19 10:04:24;;;;;;;1.87;0.88;;;;;;;12.20;49.29;99591.82;1704689;82;21124;-61
2021/04/19 10:07:00;;;;;;;3.55;1.02;;;;;;;12.18;49.93;99597.77;1699455;82;21665;-60
2021/04/19 10:09:29;;;;;;;3.05;1.00;;;;;;;12.16;50.96;99602.41;1699268;83;21503;-60
2021/04/19 10:11:59;;;;;;;3.17;1.00;;;;;;;12.11;50.52;99604.87;1696385;83;21207;-58
2021/04/19 10:14:27;;;;;;;1.02;0.88;;;;;;;12.06;50.82;99601.59;1673620;84;22141;-58
2021/04/19 10:16:55;;;;;;;1.30;0.88;;;;;;;12.07;50.41;99604.68;1708068;81;21515;-61
2021/04/19 10:19:28;;;;;;;1.67;0.82;;;;;;;12.06;50.48;99606.11;1723866;81;21120;-61
2021/04/19 10:22:00;;;;;;;1.05;0.82;;;;;;;12.05;50.92;99610.63;1720325;81;21485;-59
2021/04/19 10:24:27;;;;;;;2.05;0.90;;;;;;;12.06;51.71;99604.77;1723295;81;21930;-60
2021/04/19 10:26:55;;;;;;;1.15;0.90;;;;;;;12.12;52.28;99607.10;1729554;81;21172;-60
2021/04/19 10:29:26;;;;;;;6.80;0.88;;;;;;;12.13;52.08;99603.45;1722613;80;21566;-60
2021/04/19 10:32:00;;;;;;;1.57;0.90;;;;;;;12.13;51.49;99611.06;1725525;80;21184;-59
2021/04/19 10:34:30;;;;;;;4.45;1.10;;;;;;;12.19;50.79;99610.31;1726570;80;21858;-57
2021/04/19 10:37:00;;;;;;;1.80;1.00;;;;;;;12.23;50.79;99606.50;1726194;80;21626;-59
2021/04/19 10:39:31;;;;;;;1.35;0.90;;;;;;;12.29;51.69;99607.48;1721327;81;21218;-58
2021/04/19 10:42:04;;;;;;;1.20;0.85;;;;;;;12.37;51.62;99610.14;1725105;80;21140;-60
2021/04/19 10:44:41;;;;;;;3.47;1.30;;;;;;;12.38;51.28;99605.61;1722788;81;21120;-59
2021/04/19 10:47:13;;;;;;;1.55;1.10;;;;;;;12.39;51.60;99601.95;1720494;80;21247;-59
2021/04/19 10:49:41;;;;;;;1.37;0.90;;;;;;;12.44;51.99;99606.12;1724460;80;21604;-59
2021/04/19 10:52:10;;;;;;;2.35;1.10;;;;;;;12.51;52.05;99612.02;1723841;81;21211;-58
2021/04/19 10:54:40;;;;;;;5.47;1.60;;;;;;;12.57;51.48;99598.66;1724484;80;21483;-60
2021/04/19 10:57:08;;;;;;;4.75;3.17;;;;;;;12.62;51.91;99614.97;1719834;81;21120;-59
2021/04/19 10:59:36;;;;;;;1.70;1.00;;;;;;;12.70;51.51;99609.98;1683156;82;21124;-62
2021/04/19 11:02:08;;;;;;;2.55;1.17;;;;;;;12.70;50.71;99612.69;1723048;81;21240;-62
2021/04/19 11:04:36;;;;;;;1.67;0.88;;;;;;;12.67;50.57;99608.84;1726634;81;21719;-59
2021/04/19 11:07:30;;;;;;;3.17;0.70;;;;;;;12.66;50.71;99611.63;1721788;80;21171;-60
2021/04/19 11:10:25;;;;;;;2.95;0.70;;;;;;;12.65;50.79;99603.13;1723930;81;21096;-58
2021/04/19 11:12:57;;;;;;;0.70;0.70;;;;;;;12.72;49.11;99622.05;1722053;81;21171;-60
2021/04/19 11:15:40;;;;;;;1.92;0.90;;;;;;;12.76;48.37;99613.67;1724380;81;22070;-59
2021/04/19 11:18:24;;;;;;;3.77;0.90;;;;;;;12.74;48.69;99611.56;1721599;81;21180;-61
2021/04/19 11:20:53;;;;;;;5.50;1.45;;;;;;;12.76;48.72;99610.97;1722266;81;21184;-60
2021/04/19 11:23:27;;;;;;;3.62;0.93;;;;;;;12.81;48.87;99603.95;1722189;81;21171;-60
2021/04/19 11:25:57;;;;;;;;;;;;;;;12.84;48.98;99599.23;1727092;81;21219;-60
2021/04/19 11:31:19;;;;;;;0.80;0.60;;;;;;;12.92;47.94;99599.27;1867231;75;22316;-61
2021/04/19 11:33:47;;;;;;;0.50;0.42;;;;;;;12.87;47.06;99600.88;1841583;76;21408;-60
2021/04/19 11:36:16;;;;;;;0.72;0.55;;;;;;;12.81;45.68;99596.73;1832265;76;22503;-59
2021/04/19 11:38:44;;;;;;;0.57;0.57;;;;;;;12.71;45.59;99593.31;1804460;77;21052;-60
2021/04/19 11:41:13;;;;;;;2.17;0.60;;;;;;;12.66;46.82;99596.77;1772024;79;21089;-63
2021/04/19 11:43:52;;;;;;;0.90;0.60;;;;;;;12.69;47.19;99589.34;1770972;79;21099;-61
2021/04/19 11:46:21;;;;;;;1.02;0.70;;;;;;;12.73;47.63;99587.34;1776581;79;21461;-60
2021/04/19 11:48:50;;;;;;;3.00;0.80;;;;;;;12.80;47.43;99588.23;1777606;78;22349;-59
2021/04/19 11:51:18;;;;;;;0.70;0.60;;;;;;;12.88;46.98;99587.77;1778070;79;21499;-63
2021/04/19 11:53:47;;;;;;;2.45;0.60;;;;;;;12.93;46.37;99585.64;1802529;77;21127;-61
2021/04/19 11:56:18;;;;;;;3.35;0.70;;;;;;;12.95;46.30;99579.67;1777192;78;21884;-60
2021/04/19 11:58:48;;;;;;;2.25;0.62;;;;;;;12.96;46.43;99579.20;1764829;79;21206;-62
2021/04/19 12:01:19;;;;;;;0.70;0.55;;;;;;;12.95;46.51;99576.11;1775354;78;21560;-59
2021/04/19 12:03:51;;;;;;;0.88;0.57;;;;;;;12.97;46.11;99569.66;1768291;78;21210;-61
2021/04/19 12:06:21;;;;;;;1.10;0.90;;;;;;;12.98;46.13;99569.17;1774601;78;21482;-59